Time;durP1;ratioP1;P1;durP2;ratioP2;P2;SDS_P1;SDS_P2;PMS_P1;PMS_P2;Temp;Humidity;BMP_temperature;BMP_pressure;BME280_temperature;BME280_humidity;BME280_pressure;Samples;Min_cycle;Max_cycle;Signal;HPM_P1;HPM_P2
2022/05/28 00:00:17;;;;;;;0.50;0.50;;;13.80;99.90;;;;;;5011717;28;20168;-76
2022/05/28 00:02:43;;;;;;;0.50;0.50;;;13.70;99.90;;;;;;5011850;28;20346;-76
2022/05/28 00:05:08;;;;;;;0.30;0.30;;;13.70;99.90;;;;;;5012110;28;20310;-77
2022/05/28 00:07:34;;;;;;;0.40;0.40;;;13.70;99.90;;;;;;5011961;28;20296;-76
2022/05/28 00:09:59;;;;;;;0.40;0.40;;;13.60;99.90;;;;;;5011333;28;20177;-77
2022/05/28 00:12:29;;;;;;;0.40;0.40;;;13.60;99.90;;;;;;5011957;28;20796;-76
2022/05/28 00:14:55;;;;;;;0.43;0.43;;;13.50;99.90;;;;;;5012116;28;20180;-77
2022/05/28 00:17:21;;;;;;;0.30;0.30;;;13.50;99.90;;;;;;5005451;28;20247;-77
2022/05/28 00:19:46;;;;;;;0.40;0.40;;;13.50;99.90;;;;;;5010174;28;20626;-76
2022/05/28 00:22:12;;;;;;;0.40;0.40;;;13.40;99.90;;;;;;5011490;28;20196;-76
2022/05/28 00:24:38;;;;;;;0.50;0.50;;;13.40;99.90;;;;;;5010731;28;20235;-76
2022/05/28 00:27:04;;;;;;;0.47;0.47;;;13.30;99.90;;;;;;5011917;28;20184;-77
2022/05/28 00:29:29;;;;;;;0.50;0.50;;;13.30;99.90;;;;;;5011750;28;20211;-76
2022/05/28 00:31:55;;;;;;;0.50;0.50;;;13.20;99.90;;;;;;5011838;28;20223;-77
2022/05/28 00:34:21;;;;;;;0.40;0.40;;;13.20;99.90;;;;;;5011665;28;20172;-76
2022/05/28 00:36:46;;;;;;;0.50;0.50;;;13.20;99.90;;;;;;5011611;28;20213;-77
2022/05/28 00:39:12;;;;;;;0.40;0.40;;;13.20;99.90;;;;;;5011128;28;20185;-77
2022/05/28 00:41:38;;;;;;;0.40;0.40;;;13.20;99.90;;;;;;5011617;28;20226;-76
2022/05/28 00:44:05;;;;;;;0.40;0.40;;;13.20;99.90;;;;;;5011715;28;20172;-76
2022/05/28 00:46:31;;;;;;;0.40;0.40;;;13.20;99.90;;;;;;5011411;28;20275;-75
2022/05/28 00:49:06;;;;;;;0.60;0.60;;;13.10;99.90;;;;;;5011194;28;20192;-76
2022/05/28 00:51:43;;;;;;;0.50;0.50;;;13.00;99.90;;;;;;5011091;28;20200;-76
2022/05/28 00:54:10;;;;;;;0.50;0.50;;;12.90;99.90;;;;;;5011769;28;20204;-76
2022/05/28 00:56:37;;;;;;;0.50;0.50;;;12.90;99.90;;;;;;5011685;28;20290;-76
2022/05/28 00:59:03;;;;;;;0.50;0.50;;;12.80;99.90;;;;;;5011303;28;20678;-76
2022/05/28 01:01:31;;;;;;;0.30;0.30;;;12.80;99.90;;;;;;5011044;28;20701;-76
2022/05/28 01:04:17;;;;;;;0.40;0.40;;;12.80;99.90;;;;;;5011272;28;20242;-76
2022/05/28 01:07:09;;;;;;;0.40;0.40;;;12.80;99.90;;;;;;5009870;28;20184;-76
2022/05/28 01:09:46;;;;;;;0.43;0.43;;;12.80;99.90;;;;;;5010995;28;20188;-76
2022/05/28 01:12:41;;;;;;;0.40;0.40;;;12.70;99.90;;;;;;5011317;28;20200;-76
2022/05/28 01:15:13;;;;;;;0.40;0.40;;;12.70;99.90;;;;;;5009033;28;20231;-76
2022/05/28 01:17:50;;;;;;;0.50;0.50;;;12.70;99.90;;;;;;5011308;28;20224;-76
2022/05/28 01:20:40;;;;;;;0.50;0.50;;;12.70;99.90;;;;;;5010971;28;20187;-76
2022/05/28 01:23:32;;;;;;;0.47;0.47;;;12.60;99.90;;;;;;5011344;28;20175;-76
2022/05/28 01:26:18;;;;;;;0.43;0.43;;;12.70;99.90;;;;;;5011139;28;20202;-76
2022/05/28 01:28:52;;;;;;;0.47;0.47;;;12.70;99.90;;;;;;5011581;28;20181;-76
2022/05/28 01:31:19;;;;;;;0.50;0.50;;;12.60;99.90;;;;;;5011010;28;20201;-76
2022/05/28 01:33:46;;;;;;;0.40;0.40;;;12.60;99.90;;;;;;5011061;28;20669;-76
2022/05/28 01:36:14;;;;;;;0.50;0.50;;;12.50;99.90;;;;;;5013411;28;20299;-76
2022/05/28 01:38:41;;;;;;;0.50;0.50;;;12.50;99.90;;;;;;5014615;28;20610;-76
2022/05/28 01:41:09;;;;;;;0.40;0.40;;;12.50;99.90;;;;;;5014044;28;20207;-76
2022/05/28 01:43:40;;;;;;;0.50;0.50;;;12.50;99.90;;;;;;5014459;28;20666;-76
2022/05/28 01:46:06;;;;;;;0.50;0.50;;;12.50;99.90;;;;;;5014629;28;20180;-76
2022/05/28 01:48:33;;;;;;;0.50;0.50;;;12.40;99.90;;;;;;5014692;28;20185;-76
2022/05/28 01:51:01;;;;;;;0.30;0.30;;;12.40;99.90;;;;;;5013942;28;20200;-76
2022/05/28 01:56:14;;;;;;;0.50;0.50;;;12.30;99.90;;;;;;5014190;28;20262;-76
2022/05/28 01:58:40;;;;;;;0.50;0.50;;;12.40;99.90;;;;;;5014155;28;20200;-76
2022/05/28 02:01:07;;;;;;;0.50;0.50;;;12.40;99.90;;;;;;5013711;28;20231;-76
2022/05/28 02:03:37;;;;;;;0.40;0.40;;;12.40;99.90;;;;;;5014352;28;20203;-76
2022/05/28 02:06:04;;;;;;;0.40;0.40;;;12.30;99.90;;;;;;5014374;28;20518;-76
2022/05/28 02:08:35;;;;;;;0.53;0.53;;;12.30;99.90;;;;;;5014064;28;20322;-76
2022/05/28 02:11:20;;;;;;;0.50;0.50;;;12.30;99.90;;;;;;5013683;28;20188;-76
2022/05/28 02:13:52;;;;;;;0.50;0.50;;;12.20;99.90;;;;;;5014170;28;20184;-76
2022/05/28 02:16:29;;;;;;;0.50;0.50;;;12.20;99.90;;;;;;5013873;28;20212;-76
2022/05/28 02:19:01;;;;;;;0.50;0.50;;;12.20;99.90;;;;;;5013406;28;20183;-77
2022/05/28 02:21:31;;;;;;;0.40;0.40;;;12.20;99.90;;;;;;5013968;28;20208;-76
2022/05/28 02:24:15;;;;;;;0.47;0.47;;;12.10;99.90;;;;;;5013966;28;20541;-76
2022/05/28 02:26:48;;;;;;;0.40;0.40;;;12.10;99.90;;;;;;5014395;28;20172;-76
2022/05/28 02:29:15;;;;;;;0.47;0.47;;;12.00;99.90;;;;;;5013441;28;20528;-76
2022/05/28 02:31:45;;;;;;;0.60;0.60;;;11.90;99.90;;;;;;5013423;28;20666;-76
2022/05/28 02:34:11;;;;;;;0.50;0.50;;;11.90;99.90;;;;;;5013718;28;20196;-76
2022/05/28 02:36:37;;;;;;;0.50;0.50;;;12.00;99.90;;;;;;5013581;28;20295;-76
2022/05/28 02:39:03;;;;;;;0.60;0.60;;;11.90;99.90;;;;;;5012982;28;20259;-76
2022/05/28 02:41:29;;;;;;;0.40;0.40;;;11.90;99.90;;;;;;5013371;28;20192;-77
2022/05/28 02:43:54;;;;;;;0.40;0.40;;;11.90;99.90;;;;;;5013506;28;20184;-76
2022/05/28 02:46:20;;;;;;;0.50;0.50;;;11.90;99.90;;;;;;5012751;28;20168;-76
2022/05/28 02:48:46;;;;;;;0.50;0.50;;;11.90;99.90;;;;;;5013023;28;20267;-76
2022/05/28 02:51:15;;;;;;;0.50;0.50;;;11.90;99.90;;;;;;5012969;28;20188;-76
2022/05/28 02:53:41;;;;;;;0.40;0.40;;;11.90;99.90;;;;;;5013439;28;20267;-76
2022/05/28 02:56:08;;;;;;;0.50;0.50;;;11.70;99.90;;;;;;5013262;28;20291;-76
2022/05/28 02:58:34;;;;;;;0.50;0.50;;;11.70;99.90;;;;;;5013185;28;20726;-76
2022/05/28 03:01:14;;;;;;;0.40;0.40;;;11.60;99.90;;;;;;5013121;28;20291;-76
2022/05/28 03:03:39;;;;;;;0.40;0.40;;;11.60;99.90;;;;;;5013353;28;20184;-77
2022/05/28 03:06:05;;;;;;;0.40;0.40;;;11.50;99.90;;;;;;5013021;28;20552;-76
2022/05/28 03:08:30;;;;;;;0.40;0.40;;;11.50;96.10;;;;;;5012842;28;20172;-77
2022/05/28 03:10:56;;;;;;;0.50;0.50;;;11.40;99.90;;;;;;5012424;28;20200;-76
2022/05/28 03:13:21;;;;;;;0.40;0.40;;;11.40;99.90;;;;;;5012626;28;20176;-77
2022/05/28 03:15:47;;;;;;;0.50;0.50;;;11.30;99.90;;;;;;5013061;28;20545;-76
2022/05/28 03:18:13;;;;;;;0.50;0.50;;;11.30;99.90;;;;;;5013034;28;20184;-77
2022/05/28 03:20:39;;;;;;;0.60;0.60;;;11.30;99.90;;;;;;5012716;28;20173;-77
2022/05/28 03:23:04;;;;;;;0.40;0.40;;;11.30;99.90;;;;;;5034480;28;20179;-76
2022/05/28 03:25:30;;;;;;;0.53;0.53;;;11.20;99.90;;;;;;5035555;28;20181;-77
2022/05/28 03:27:55;;;;;;;0.47;0.47;;;11.20;99.90;;;;;;5031766;28;20177;-76
2022/05/28 03:30:21;;;;;;;0.50;0.50;;;11.20;99.90;;;;;;5029219;28;20191;-76
2022/05/28 03:32:47;;;;;;;0.43;0.43;;;11.20;99.90;;;;;;5026544;28;20197;-76
2022/05/28 03:35:12;;;;;;;0.50;0.50;;;11.20;99.90;;;;;;5024131;28;20181;-77
2022/05/28 03:37:38;;;;;;;0.70;0.70;;;11.20;99.90;;;;;;5013337;28;20220;-77
2022/05/28 03:40:05;;;;;;;0.57;0.57;;;11.10;99.90;;;;;;5013010;28;20181;-77
2022/05/28 03:42:30;;;;;;;0.50;0.50;;;11.10;99.90;;;;;;5012344;28;20204;-77
2022/05/28 03:44:56;;;;;;;0.50;0.50;;;11.10;99.90;;;;;;5013076;28;20176;-77
2022/05/28 03:47:21;;;;;;;0.60;0.60;;;11.00;99.90;;;;;;5016421;28;20180;-76
2022/05/28 03:49:47;;;;;;;0.50;0.50;;;11.00;99.90;;;;;;5016096;28;20226;-77
2022/05/28 03:52:14;;;;;;;0.50;0.50;;;11.00;99.90;;;;;;5015435;28;20342;-76
2022/05/28 03:54:43;;;;;;;0.60;0.60;;;11.00;99.90;;;;;;5012961;28;20176;-76
2022/05/28 03:57:23;;;;;;;0.50;0.50;;;11.00;99.90;;;;;;5012247;28;20299;-77
2022/05/28 03:59:49;;;;;;;0.60;0.60;;;10.90;63.30;;;;;;5011775;28;20236;-77
2022/05/28 04:02:14;;;;;;;0.50;0.50;;;10.90;47.80;;;;;;5011993;28;20587;-77
2022/05/28 04:04:40;;;;;;;0.50;0.50;;;10.90;45.20;;;;;;5012134;28;20168;-77
2022/05/28 04:07:06;;;;;;;0.60;0.60;;;11.00;44.90;;;;;;5012023;28;20199;-76
2022/05/28 04:09:32;;;;;;;0.60;0.60;;;11.00;21.20;;;;;;5011368;28;20180;-76
2022/05/28 04:11:57;;;;;;;0.60;0.60;;;11.00;32.80;;;;;;5011698;28;20719;-76
2022/05/28 04:14:23;;;;;;;0.70;0.70;;;11.00;1.00;;;;;;5011836;28;20283;-76
2022/05/28 04:16:48;;;;;;;0.47;0.47;;;11.00;1.00;;;;;;5011548;28;20511;-76
2022/05/28 04:19:14;;;;;;;0.50;0.50;;;11.00;1.00;;;;;;5011560;28;20185;-76
2022/05/28 04:21:40;;;;;;;0.60;0.60;;;11.00;20.90;;;;;;5011447;28;20200;-76
2022/05/28 04:24:06;;;;;;;0.50;0.50;;;10.90;34.90;;;;;;5011575;28;20229;-76
2022/05/28 04:26:33;;;;;;;0.50;0.50;;;10.90;1.00;;;;;;5011739;28;20220;-76
2022/05/28 04:28:59;;;;;;;0.60;0.60;;;10.90;1.00;;;;;;5043468;23;20295;-81
2022/05/28 04:31:25;;;;;;;0.50;0.50;;;10.80;10.70;;;;;;5033156;28;20549;-80
2022/05/28 04:33:51;;;;;;;0.60;0.60;;;10.80;35.90;;;;;;5038394;28;20183;-81
2022/05/28 04:36:16;;;;;;;0.60;0.60;;;10.90;89.90;;;;;;5041603;28;20211;-81
2022/05/28 04:38:42;;;;;;;0.60;0.60;;;10.80;46.90;;;;;;5039315;28;20448;-80
2022/05/28 04:41:08;;;;;;;0.60;0.60;;;10.90;59.20;;;;;;5035461;28;20223;-81
2022/05/28 04:43:34;;;;;;;0.60;0.60;;;11.00;89.20;;;;;;5036924;28;20184;-79
2022/05/28 04:45:59;;;;;;;0.50;0.50;;;11.10;99.90;;;;;;5035719;28;20233;-79
2022/05/28 04:48:26;;;;;;;0.60;0.60;;;11.20;35.30;;;;;;5047567;28;20176;-80
2022/05/28 04:50:51;;;;;;;0.47;0.47;;;11.30;1.00;;;;;;5047430;28;20168;-79
2022/05/28 04:53:17;;;;;;;0.60;0.60;;;11.40;1.00;;;;;;5047953;28;20191;-79
2022/05/28 04:55:44;;;;;;;0.50;0.50;;;11.50;1.00;;;;;;5050177;28;20184;-79
2022/05/28 04:58:11;;;;;;;0.50;0.50;;;11.60;1.00;;;;;;5049823;28;20262;-78
2022/05/28 05:00:37;;;;;;;0.60;0.60;;;11.60;1.00;;;;;;5039001;28;20203;-78
2022/05/28 05:03:02;;;;;;;0.53;0.53;;;11.60;1.00;;;;;;5033770;28;20184;-78
2022/05/28 05:05:28;;;;;;;0.50;0.50;;;11.60;1.00;;;;;;5033931;28;20752;-78
2022/05/28 05:07:54;;;;;;;0.50;0.50;;;11.60;1.00;;;;;;5034596;28;20172;-77
2022/05/28 05:10:19;;;;;;;0.50;0.50;;;11.50;1.00;;;;;;5037817;28;20172;-77
2022/05/28 05:12:45;;;;;;;0.60;0.60;;;11.30;1.00;;;;;;5039000;28;20199;-80
2022/05/28 05:15:12;;;;;;;0.37;0.37;;;11.30;1.00;;;;;;5037545;28;20283;-78
2022/05/28 05:17:37;;;;;;;0.43;0.43;;;11.30;1.00;;;;;;5036913;28;20338;-78
2022/05/28 05:20:03;;;;;;;0.50;0.50;;;11.40;1.00;;;;;;5036775;28;20180;-78
2022/05/28 05:22:29;;;;;;;0.60;0.60;;;11.60;1.00;;;;;;5036755;28;20203;-78
2022/05/28 05:24:54;;;;;;;0.43;0.43;;;11.70;1.00;;;;;;5037524;28;20180;-78
2022/05/28 05:27:20;;;;;;;0.43;0.43;;;11.80;1.00;;;;;;5036931;28;20588;-79
2022/05/28 05:29:46;;;;;;;0.50;0.50;;;11.80;99.90;;;;;;5036892;28;20192;-78
2022/05/28 05:32:11;;;;;;;0.60;0.60;;;11.70;1.00;;;;;;5037328;28;20196;-78
2022/05/28 05:34:37;;;;;;;0.50;0.50;;;11.70;1.00;;;;;;5037300;28;20230;-78
2022/05/28 05:37:03;;;;;;;0.40;0.40;;;11.60;99.90;;;;;;5036750;28;20207;-78
2022/05/28 05:39:29;;;;;;;0.50;0.50;;;11.70;99.90;;;;;;5036080;28;20176;-78
2022/05/28 05:41:55;;;;;;;0.50;0.50;;;11.70;99.90;;;;;;5036223;28;20537;-78
2022/05/28 05:44:21;;;;;;;0.50;0.50;;;11.70;99.90;;;;;;5036525;28;20226;-78
2022/05/28 05:46:47;;;;;;;0.50;0.50;;;11.70;16.60;;;;;;5036094;28;20176;-78
2022/05/28 05:49:12;;;;;;;0.50;0.50;;;11.70;99.90;;;;;;5033981;28;20586;-76
2022/05/28 05:51:42;;;;;;;0.60;0.60;;;11.70;99.90;;;;;;5034021;28;20200;-76
2022/05/28 05:54:08;;;;;;;0.50;0.50;;;11.80;99.90;;;;;;5034994;28;20347;-76
2022/05/28 05:56:33;;;;;;;0.50;0.50;;;11.90;1.00;;;;;;5034202;28;20235;-77
2022/05/28 05:58:59;;;;;;;0.60;0.60;;;12.10;1.00;;;;;;5032207;28;20207;-77
2022/05/28 06:01:25;;;;;;;0.57;0.57;;;12.30;99.90;;;;;;5034697;28;20199;-77
2022/05/28 06:03:51;;;;;;;0.60;0.60;;;12.50;1.00;;;;;;5033632;28;20191;-78
2022/05/28 06:06:17;;;;;;;0.47;0.47;;;12.50;99.90;;;;;;5034708;28;20552;-78
2022/05/28 06:08:44;;;;;;;0.50;0.50;;;12.60;99.90;;;;;;5034987;28;20195;-78
2022/05/28 06:11:09;;;;;;;0.53;0.53;;;12.70;1.00;;;;;;5034102;28;20188;-77
2022/05/28 06:13:35;;;;;;;0.57;0.57;;;12.70;59.40;;;;;;5034320;28;20218;-78
2022/05/28 06:16:01;;;;;;;0.50;0.50;;;12.80;99.90;;;;;;5032846;28;20663;-78
2022/05/28 06:18:27;;;;;;;0.50;0.50;;;13.00;23.70;;;;;;5034953;28;20180;-78
2022/05/28 06:20:53;;;;;;;0.53;0.53;;;13.00;99.90;;;;;;5034194;28;20522;-78
2022/05/28 06:23:19;;;;;;;0.60;0.60;;;13.00;99.90;;;;;;5033763;28;20173;-78
2022/05/28 06:25:45;;;;;;;0.47;0.47;;;13.00;1.00;;;;;;5034354;28;20264;-79
2022/05/28 06:28:11;;;;;;;0.50;0.50;;;13.20;1.00;;;;;;5032012;28;20168;-76
2022/05/28 06:30:36;;;;;;;0.50;0.50;;;13.40;1.00;;;;;;5032819;28;20175;-77
2022/05/28 06:33:02;;;;;;;0.40;0.40;;;13.60;99.90;;;;;;5033511;28;20168;-76
2022/05/28 06:35:32;;;;;;;0.50;0.50;;;13.60;99.90;;;;;;5033485;28;20539;-76
2022/05/28 06:37:57;;;;;;;0.40;0.40;;;13.90;99.90;;;;;;5033764;28;20680;-77
2022/05/28 06:40:23;;;;;;;0.40;0.40;;;13.90;99.90;;;;;;5034132;28;20172;-77
2022/05/28 06:42:49;;;;;;;0.40;0.40;;;13.90;99.90;;;;;;5034746;28;20196;-79
2022/05/28 06:45:15;;;;;;;0.50;0.50;;;13.90;99.90;;;;;;5035405;28;20184;-76
2022/05/28 06:47:42;;;;;;;0.50;0.50;;;13.70;99.90;;;;;;5035541;28;20755;-78
2022/05/28 06:52:54;;;;;;;0.50;0.50;;;13.90;99.90;;;;;;5033894;28;20206;-78
2022/05/28 06:55:19;;;;;;;0.53;0.53;;;13.80;99.90;;;;;;5032259;28;20547;-79
2022/05/28 06:57:45;;;;;;;0.40;0.40;;;14.00;99.90;;;;;;5032245;28;20230;-77
2022/05/28 07:00:11;;;;;;;0.50;0.50;;;14.20;99.90;;;;;;5031965;28;20172;-76
2022/05/28 07:02:37;;;;;;;0.40;0.40;;;14.40;99.90;;;;;;5035226;28;20544;-78
2022/05/28 07:05:03;;;;;;;0.43;0.43;;;14.60;1.00;;;;;;5032717;28;20203;-78
2022/05/28 07:07:28;;;;;;;0.50;0.50;;;14.70;1.00;;;;;;5032911;28;20202;-80
2022/05/28 07:09:54;;;;;;;0.60;0.60;;;14.80;1.00;;;;;;5034025;28;20711;-77
2022/05/28 07:12:19;;;;;;;0.40;0.40;;;14.90;1.00;;;;;;5033993;28;20235;-78
2022/05/28 07:14:45;;;;;;;0.40;0.40;;;15.10;1.00;;;;;;5034134;28;20199;-81
2022/05/28 07:17:10;;;;;;;0.40;0.40;;;15.20;1.00;;;;;;5033557;28;20212;-78
2022/05/28 07:19:36;;;;;;;0.50;0.50;;;15.20;1.00;;;;;;5033524;28;20241;-77
2022/05/28 07:22:01;;;;;;;0.50;0.50;;;15.20;1.00;;;;;;5032149;28;20200;-77
2022/05/28 07:24:27;;;;;;;0.50;0.50;;;15.30;1.00;;;;;;5032202;28;20251;-79
2022/05/28 07:26:52;;;;;;;0.50;0.50;;;15.40;1.00;;;;;;5033396;28;20179;-76
2022/05/28 07:29:18;;;;;;;0.53;0.53;;;15.50;1.00;;;;;;5032491;28;20200;-78
2022/05/28 07:31:44;;;;;;;0.40;0.40;;;15.50;1.00;;;;;;5032466;28;20676;-78
2022/05/28 07:34:10;;;;;;;0.50;0.50;;;15.50;1.00;;;;;;5033775;28;20176;-77
2022/05/28 07:36:35;;;;;;;0.40;0.40;;;15.80;1.00;;;;;;5033447;28;20676;-78
2022/05/28 07:39:02;;;;;;;0.50;0.50;;;16.00;1.00;;;;;;5033520;28;20560;-78
2022/05/28 07:41:27;;;;;;;0.33;0.33;;;16.40;1.00;;;;;;5033310;28;20698;-78
2022/05/28 07:43:54;;;;;;;0.43;0.43;;;16.80;1.00;;;;;;5034371;28;20168;-77
2022/05/28 07:46:26;;;;;;;0.50;0.50;;;16.90;1.00;;;;;;5035027;28;20172;-78
2022/05/28 07:48:53;;;;;;;0.30;0.30;;;17.10;1.00;;;;;;5035189;28;20184;-78
2022/05/28 07:51:19;;;;;;;0.30;0.30;;;17.30;1.00;;;;;;5036414;28;20259;-77
2022/05/28 07:53:45;;;;;;;0.30;0.30;;;17.60;1.00;;;;;;5036493;28;20210;-77
2022/05/28 07:56:11;;;;;;;0.30;0.30;;;18.00;1.00;;;;;;5033666;28;20175;-77
2022/05/28 07:58:37;;;;;;;0.40;0.40;;;18.40;1.00;;;;;;5033374;28;20254;-78
2022/05/28 08:01:04;;;;;;;0.30;0.30;;;19.00;1.00;;;;;;5032672;28;20222;-79
2022/05/28 08:03:30;;;;;;;0.30;0.30;;;19.10;1.00;;;;;;5033768;28;20637;-78
2022/05/28 08:05:56;;;;;;;0.30;0.30;;;19.30;1.00;;;;;;5034009;28;20184;-77
2022/05/28 08:08:24;;;;;;;0.30;0.30;;;19.50;1.00;;;;;;5032122;28;20183;-77
2022/05/28 08:10:51;;;;;;;0.30;0.30;;;19.70;1.00;;;;;;5030918;28;20180;-77
2022/05/28 08:13:21;;;;;;;0.30;0.30;;;19.70;1.00;;;;;;5028407;28;20400;-77
2022/05/28 08:15:48;;;;;;;0.40;0.40;;;19.80;1.00;;;;;;5031002;28;20229;-77
2022/05/28 08:18:16;;;;;;;0.37;0.37;;;20.00;1.00;;;;;;5028365;28;20208;-77
2022/05/28 08:23:26;;;;;;;0.30;0.30;;;20.30;1.00;;;;;;5023461;28;20195;-78
2022/05/28 08:25:52;;;;;;;0.30;0.30;;;20.20;1.00;;;;;;5026486;28;20172;-77
2022/05/28 08:28:20;;;;;;;0.30;0.30;;;20.10;1.00;;;;;;5027199;28;20188;-77
2022/05/28 08:30:46;;;;;;;0.40;0.40;;;20.20;1.00;;;;;;5030475;28;20604;-77
2022/05/28 08:33:15;;;;;;;0.30;0.30;;;20.50;1.00;;;;;;5031587;28;20211;-76
2022/05/28 08:35:41;;;;;;;0.27;0.27;;;20.70;1.00;;;;;;5029566;28;20194;-78
2022/05/28 08:38:13;;;;;;;0.40;0.40;;;20.90;1.00;;;;;;5032176;28;20306;-78
2022/05/28 08:40:59;;;;;;;0.40;0.40;;;20.90;1.00;;;;;;5031509;28;20251;-78
2022/05/28 08:43:29;;;;;;;0.30;0.30;;;21.20;1.00;;;;;;5032602;28;20818;-78
2022/05/28 08:45:54;;;;;;;0.37;0.37;;;21.10;1.00;;;;;;5032934;28;20176;-77
2022/05/28 08:48:29;;;;;;;0.37;0.37;;;21.20;1.00;;;;;;5037729;28;20599;-77
2022/05/28 08:51:07;;;;;;;0.40;0.40;;;21.40;1.00;;;;;;5020074;28;20203;-78
2022/05/28 08:53:38;;;;;;;0.30;0.30;;;21.30;1.00;;;;;;5019888;28;20176;-79
2022/05/28 08:56:05;;;;;;;0.30;0.30;;;21.30;1.00;;;;;;5017172;28;20668;-79
2022/05/28 08:58:33;;;;;;;0.37;0.37;;;21.60;1.00;;;;;;5033165;28;20180;-79
2022/05/28 09:01:17;;;;;;;0.30;0.30;;;21.60;1.00;;;;;;5036179;28;20206;-78
2022/05/28 09:03:54;;;;;;;0.37;0.37;;;22.00;1.00;;;;;;5037591;28;20191;-79
2022/05/28 09:06:29;;;;;;;0.30;0.30;;;22.50;1.00;;;;;;5035241;28;20265;-78
2022/05/28 09:08:56;;;;;;;0.40;0.40;;;22.30;1.00;;;;;;5028797;28;20184;-82
2022/05/28 09:11:41;;;;;;;0.37;0.37;;;22.40;1.00;;;;;;5032718;28;20200;-80
2022/05/28 09:14:30;;;;;;;0.37;0.37;;;22.20;1.00;;;;;;5030942;28;20237;-78
2022/05/28 09:16:59;;;;;;;0.50;0.50;;;22.30;1.00;;;;;;5032916;28;20286;-78
2022/05/28 09:19:30;;;;;;;0.30;0.30;;;22.20;1.00;;;;;;5035437;28;20164;-78
2022/05/28 09:21:56;;;;;;;0.30;0.30;;;22.20;1.00;;;;;;5033553;28;20248;-78
2022/05/28 09:24:24;;;;;;;0.30;0.30;;;21.50;1.00;;;;;;5035069;28;20662;-78
2022/05/28 09:27:14;;;;;;;0.30;0.30;;;20.70;1.00;;;;;;5034918;28;20171;-79
2022/05/28 09:29:52;;;;;;;0.50;0.50;;;20.40;1.00;;;;;;5031264;28;20291;-78
2022/05/28 09:32:26;;;;;;;0.40;0.40;;;20.40;1.00;;;;;;5030097;28;20199;-78
2022/05/28 09:35:08;;;;;;;0.40;0.40;;;21.30;1.00;;;;;;5026101;28;20179;-77
2022/05/28 09:37:38;;;;;;;0.40;0.40;;;21.40;1.00;;;;;;5028259;28;20199;-77
2022/05/28 09:40:11;;;;;;;0.30;0.30;;;21.30;1.00;;;;;;5033827;28;20176;-78
2022/05/28 09:43:02;;;;;;;0.40;0.40;;;20.80;1.00;;;;;;5032363;28;20711;-78
2022/05/28 09:46:03;;;;;;;0.30;0.30;;;20.30;1.00;;;;;;5030273;28;20267;-76
2022/05/28 09:48:29;;;;;;;0.30;0.30;;;19.80;1.00;;;;;;4990235;28;20208;-78
2022/05/28 09:50:55;;;;;;;0.33;0.33;;;20.00;1.00;;;;;;5025254;28;20246;-77
2022/05/28 09:56:35;;;;;;;0.40;0.40;;;20.80;1.00;;;;;;5033933;28;20722;-77
2022/05/28 09:59:05;;;;;;;0.30;0.30;;;20.60;1.00;;;;;;5033881;28;20446;-78
2022/05/28 10:01:33;;;;;;;0.50;0.50;;;20.70;1.00;;;;;;5034724;28;20203;-79
2022/05/28 10:06:58;;;;;;;0.30;0.30;;;20.80;1.00;;;;;;5036388;28;20202;-79
2022/05/28 10:09:27;;;;;;;0.40;0.40;;;20.80;1.00;;;;;;5033866;28;20182;-79
2022/05/28 10:11:55;;;;;;;0.30;0.30;;;21.00;1.00;;;;;;5033713;28;20195;-76
2022/05/28 10:14:23;;;;;;;0.40;0.40;;;21.30;1.00;;;;;;5035009;28;20180;-79
2022/05/28 10:16:53;;;;;;;0.37;0.37;;;21.70;1.00;;;;;;5033483;28;20326;-79
2022/05/28 10:19:38;;;;;;;0.30;0.30;;;22.20;1.00;;;;;;5032537;28;20180;-78
2022/05/28 10:22:10;;;;;;;0.30;0.30;;;22.30;1.00;;;;;;5027181;28;20287;-78
2022/05/28 10:24:46;;;;;;;0.40;0.40;;;22.60;1.00;;;;;;5034390;28;20172;-78
2022/05/28 10:27:33;;;;;;;0.30;0.30;;;22.70;1.00;;;;;;5035693;28;20186;-79
2022/05/28 10:30:04;;;;;;;0.40;0.40;;;23.30;1.00;;;;;;5026093;28;20274;-78
2022/05/28 10:32:48;;;;;;;0.40;0.40;;;23.00;1.00;;;;;;5033371;28;20191;-78
2022/05/28 10:35:19;;;;;;;0.33;0.33;;;22.30;1.00;;;;;;5035098;28;20183;-78
2022/05/28 10:37:45;;;;;;;0.37;0.37;;;21.80;1.00;;;;;;5035897;28;20239;-78
2022/05/28 10:40:26;;;;;;;0.43;0.43;;;21.30;1.00;;;;;;5035533;28;20198;-78
2022/05/28 10:43:02;;;;;;;0.40;0.40;;;20.80;1.00;;;;;;5035113;28;20262;-77
2022/05/28 10:45:43;;;;;;;0.40;0.40;;;20.40;1.00;;;;;;5035809;28;20207;-79
2022/05/28 10:48:35;;;;;;;0.40;0.40;;;20.60;1.00;;;;;;5023742;28;20679;-78
2022/05/28 10:51:31;;;;;;;0.30;0.30;;;20.70;1.00;;;;;;5032193;28;20254;-80
2022/05/28 10:54:16;;;;;;;0.50;0.50;;;20.70;1.00;;;;;;5030093;28;20238;-78
2022/05/28 10:57:03;;;;;;;0.30;0.30;;;20.50;1.00;;;;;;5029337;28;20215;-77
2022/05/28 10:59:46;;;;;;;0.30;0.30;;;20.10;1.00;;;;;;5030179;28;20187;-76
2022/05/28 11:02:39;;;;;;;0.30;0.30;;;19.50;1.00;;;;;;5033243;28;20238;-77
2022/05/28 11:05:23;;;;;;;0.40;0.40;;;19.00;1.00;;;;;;5027699;28;20276;-78
2022/05/28 11:08:10;;;;;;;0.30;0.30;;;18.80;1.00;;;;;;5034239;28;20233;-78
2022/05/28 11:11:00;;;;;;;0.40;0.40;;;18.60;1.00;;;;;;5034492;28;20714;-78
2022/05/28 11:13:55;;;;;;;0.30;0.30;;;18.50;1.00;;;;;;5029328;28;20184;-77
2022/05/28 11:16:28;;;;;;;0.30;0.30;;;18.40;1.00;;;;;;5033183;28;20176;-77
2022/05/28 11:19:19;;;;;;;0.30;0.30;;;18.50;1.00;;;;;;5033187;28;20195;-77
2022/05/28 11:22:02;;;;;;;0.40;0.40;;;18.60;1.00;;;;;;5033311;28;20211;-78
2022/05/28 11:24:52;;;;;;;0.30;0.30;;;19.10;1.00;;;;;;5033703;28;20211;-77
2022/05/28 11:27:27;;;;;;;0.33;0.33;;;19.70;1.00;;;;;;5034000;28;20270;-77
2022/05/28 11:30:06;;;;;;;0.30;0.30;;;20.00;1.00;;;;;;5033640;28;20953;-78
2022/05/28 11:32:47;;;;;;;0.33;0.33;;;19.90;1.00;;;;;;5032538;28;20207;-77
2022/05/28 11:35:39;;;;;;;0.40;0.40;;;19.70;1.00;;;;;;5033036;28;20168;-77
2022/05/28 11:38:40;;;;;;;0.30;0.30;;;19.90;1.00;;;;;;5017859;28;20286;-77
2022/05/28 11:41:24;;;;;;;0.30;0.30;;;20.00;1.00;;;;;;4951991;28;20282;-77
2022/05/28 11:43:58;;;;;;;0.33;0.33;;;20.40;1.00;;;;;;5026152;28;20275;-78
2022/05/28 11:46:39;;;;;;;0.40;0.40;;;20.80;1.00;;;;;;5033240;28;20180;-77
2022/05/28 11:52:21;;;;;;;0.50;0.50;;;21.70;1.00;;;;;;5027520;28;20257;-78
2022/05/28 11:54:52;;;;;;;0.30;0.30;;;22.20;1.00;;;;;;5033798;28;20182;-76
2022/05/28 11:57:25;;;;;;;0.30;0.30;;;22.10;1.00;;;;;;5031692;28;20207;-78
2022/05/28 11:59:52;;;;;;;0.40;0.40;;;22.00;1.00;;;;;;5026673;28;20180;-76
2022/05/28 12:02:25;;;;;;;0.30;0.30;;;22.00;1.00;;;;;;5026183;28;20630;-77
2022/05/28 12:04:50;;;;;;;0.30;0.30;;;22.10;1.00;;;;;;5029963;28;20178;-77
2022/05/28 12:07:38;;;;;;;0.40;0.40;;;22.50;1.00;;;;;;5032549;28;20625;-77
2022/05/28 12:10:10;;;;;;;0.47;0.47;;;23.10;1.00;;;;;;5030015;28;20682;-78
2022/05/28 12:13:00;;;;;;;0.50;0.50;;;23.00;1.00;;;;;;5031806;28;20201;-77
2022/05/28 12:15:29;;;;;;;0.30;0.30;;;23.10;1.00;;;;;;5032941;28;20172;-77
2022/05/28 12:18:22;;;;;;;0.30;0.30;;;23.00;1.00;;;;;;5032444;28;20822;-77
2022/05/28 12:20:54;;;;;;;0.30;0.30;;;22.80;1.00;;;;;;5028247;28;20196;-77
2022/05/28 12:23:42;;;;;;;0.30;0.30;;;22.80;1.00;;;;;;5027146;28;20168;-76
2022/05/28 12:26:46;;;;;;;0.50;0.50;;;22.60;1.00;;;;;;5028234;28;20687;-75
2022/05/28 12:32:15;;;;;;;0.30;0.30;;;23.30;1.00;;;;;;5031353;28;20196;-74
2022/05/28 12:35:00;;;;;;;0.37;0.37;;;23.10;1.00;;;;;;5031418;28;20188;-75
2022/05/28 12:37:50;;;;;;;0.30;0.30;;;23.30;1.00;;;;;;5027671;28;20296;-73
2022/05/28 12:40:40;;;;;;;0.40;0.40;;;22.90;1.00;;;;;;5029955;28;20175;-74
2022/05/28 12:43:13;;;;;;;0.40;0.40;;;22.30;1.00;;;;;;5031338;28;20180;-74
2022/05/28 12:45:42;;;;;;;0.30;0.30;;;21.80;1.00;;;;;;5030621;28;20633;-74
2022/05/28 12:48:13;;;;;;;0.30;0.30;;;21.50;1.00;;;;;;5028069;28;20215;-74
2022/05/28 12:51:03;;;;;;;0.33;0.33;;;21.40;1.00;;;;;;5029456;28;20180;-75
2022/05/28 12:53:35;;;;;;;0.30;0.30;;;21.60;1.00;;;;;;5023747;28;20267;-75
2022/05/28 12:56:07;;;;;;;0.37;0.37;;;21.70;1.00;;;;;;5029547;28;20265;-75
2022/05/28 12:58:36;;;;;;;0.30;0.30;;;22.10;1.00;;;;;;5027201;28;20201;-76
2022/05/28 13:01:05;;;;;;;0.30;0.30;;;22.10;1.00;;;;;;5028177;28;20230;-74
2022/05/28 13:03:41;;;;;;;0.40;0.40;;;21.80;1.00;;;;;;5026938;28;20176;-74
2022/05/28 13:06:33;;;;;;;0.30;0.30;;;21.50;1.00;;;;;;5027521;28;20199;-75
2022/05/28 13:09:11;;;;;;;0.30;0.30;;;21.80;1.00;;;;;;5027558;28;20179;-75
2022/05/28 13:11:44;;;;;;;0.30;0.30;;;22.30;1.00;;;;;;5028843;28;20227;-75
2022/05/28 13:14:31;;;;;;;0.30;0.30;;;22.50;1.00;;;;;;5027776;28;20226;-74
2022/05/28 13:17:11;;;;;;;0.40;0.40;;;22.30;1.00;;;;;;5025766;28;20664;-74
2022/05/28 13:19:50;;;;;;;0.30;0.30;;;22.50;1.00;;;;;;5027773;28;20167;-73
2022/05/28 13:22:41;;;;;;;0.40;0.40;;;22.10;1.00;;;;;;5028419;28;20254;-73
2022/05/28 13:25:12;;;;;;;0.40;0.40;;;21.80;1.00;;;;;;5026909;28;20546;-72
2022/05/28 13:27:56;;;;;;;0.40;0.40;;;21.30;1.00;;;;;;5029642;28;20191;-73
2022/05/28 13:30:55;;;;;;;0.30;0.30;;;20.90;1.00;;;;;;5028298;28;20238;-73
2022/05/28 13:33:22;;;;;;;0.30;0.30;;;21.00;1.00;;;;;;5030267;28;20176;-74